Time;durP1;ratioP1;P1;durP2;ratioP2;P2;SDS_P1;SDS_P2;PMS_P1;PMS_P2;Temp;Humidity;BMP_temperature;BMP_pressure;BME280_temperature;BME280_humidity;BME280_pressure;Samples;Min_cycle;Max_cycle;Signal;HPM_P1;HPM_P2
2021/05/19 00:00:19;;;;;;;3.83;1.85;;;8.20;99.90;;;;;;5078007;28;20091;-74
2021/05/19 00:02:45;;;;;;;2.88;1.60;;;8.20;99.90;;;;;;5070683;28;20036;-72
2021/05/19 00:05:11;;;;;;;3.30;2.33;;;8.20;99.90;;;;;;5069861;28;20118;-73
2021/05/19 00:07:37;;;;;;;2.53;1.98;;;8.20;99.90;;;;;;5051097;28;20470;-73
2021/05/19 00:10:07;;;;;;;4.55;2.13;;;8.20;99.90;;;;;;5051906;28;20032;-74
2021/05/19 00:12:33;;;;;;;2.20;2.00;;;8.30;99.90;;;;;;5069283;28;20029;-72
2021/05/19 00:14:59;;;;;;;5.38;1.90;;;8.20;99.90;;;;;;5069799;28;20024;-72
2021/05/19 00:17:24;;;;;;;3.42;1.90;;;8.30;99.90;;;;;;5066147;28;20036;-68
2021/05/19 00:19:52;;;;;;;2.88;2.00;;;8.30;99.90;;;;;;5068954;28;20028;-73
2021/05/19 00:22:17;;;;;;;2.45;1.60;;;8.30;99.90;;;;;;5069799;28;20024;-72
2021/05/19 00:24:43;;;;;;;1.83;1.60;;;8.30;99.90;;;;;;5069361;28;20035;-73
2021/05/19 00:27:09;;;;;;;2.63;1.50;;;8.40;99.90;;;;;;5052654;28;20044;-73
2021/05/19 00:29:34;;;;;;;2.17;1.88;;;8.40;99.90;;;;;;5069126;28;20025;-73
2021/05/19 00:32:00;;;;;;;3.70;1.77;;;8.30;99.90;;;;;;5069746;28;20040;-74
2021/05/19 00:34:26;;;;;;;2.22;1.60;;;8.40;99.90;;;;;;5069405;28;20484;-68
2021/05/19 00:36:52;;;;;;;3.75;1.83;;;8.40;99.90;;;;;;5069804;28;20048;-73
2021/05/19 00:39:17;;;;;;;1.75;1.65;;;8.40;99.90;;;;;;5069577;28;20366;-74
2021/05/19 00:41:44;;;;;;;4.47;1.60;;;8.40;99.90;;;;;;5068706;28;20028;-72
2021/05/19 00:44:17;;;;;;;2.67;1.48;;;8.40;99.90;;;;;;5069268;28;20020;-72
2021/05/19 00:46:44;;;;;;;2.05;1.70;;;8.50;99.90;;;;;;5050724;28;20033;-72
2021/05/19 00:49:11;;;;;;;3.72;1.90;;;8.40;99.90;;;;;;5035119;28;20021;-72
2021/05/19 00:51:37;;;;;;;2.45;1.52;;;8.50;99.90;;;;;;5069124;28;20100;-72
2021/05/19 00:54:03;;;;;;;4.53;1.58;;;8.50;99.90;;;;;;5069563;28;20039;-73
2021/05/19 00:56:29;;;;;;;1.98;1.77;;;8.50;99.90;;;;;;5051117;28;20036;-68
2021/05/19 00:58:57;;;;;;;5.38;1.88;;;8.50;99.90;;;;;;5051463;28;20557;-72
2021/05/19 01:01:23;;;;;;;3.45;1.40;;;8.50;99.90;;;;;;5068298;28;20047;-72
2021/05/19 01:03:49;;;;;;;1.77;1.30;;;8.50;99.90;;;;;;5067071;28;20025;-73
2021/05/19 01:06:30;;;;;;;2.40;1.40;;;8.50;99.90;;;;;;5066495;28;20100;-74
2021/05/19 01:11:40;;;;;;;4.47;1.67;;;8.50;99.90;;;;;;5063975;28;20070;-73
2021/05/19 01:14:05;;;;;;;2.30;1.63;;;8.50;99.90;;;;;;5046069;28;21328;-71
2021/05/19 01:16:31;;;;;;;3.42;1.63;;;8.60;99.90;;;;;;5050951;28;20032;-71
2021/05/19 01:18:57;;;;;;;2.25;1.77;;;8.50;99.90;;;;;;5067252;28;20469;-72
2021/05/19 01:21:23;;;;;;;2.13;1.60;;;8.60;99.90;;;;;;5069973;28;20029;-73
2021/05/19 01:23:49;;;;;;;1.85;1.60;;;8.60;99.90;;;;;;5051719;28;20033;-73
2021/05/19 01:26:15;;;;;;;1.85;1.42;;;8.60;99.90;;;;;;5069778;28;20028;-73
2021/05/19 01:28:42;;;;;;;2.60;1.73;;;8.60;99.90;;;;;;5069792;28;20028;-72
2021/05/19 01:31:10;;;;;;;2.75;1.52;;;8.60;99.90;;;;;;5071427;28;20044;-72
2021/05/19 01:33:36;;;;;;;4.05;1.73;;;8.60;99.90;;;;;;5072746;28;20021;-73
2021/05/19 01:36:03;;;;;;;2.78;1.90;;;8.60;99.90;;;;;;5056215;28;20029;-72
2021/05/19 01:38:29;;;;;;;4.10;1.80;;;8.60;99.90;;;;;;5055605;28;20036;-67
2021/05/19 01:40:54;;;;;;;4.85;2.10;;;8.60;99.90;;;;;;5054608;28;20047;-73
2021/05/19 01:43:37;;;;;;;3.67;1.65;;;8.60;99.90;;;;;;5056337;28;20028;-73
2021/05/19 01:46:05;;;;;;;3.53;1.92;;;8.60;99.90;;;;;;5073820;28;20025;-73
2021/05/19 01:48:33;;;;;;;3.65;2.28;;;8.60;99.90;;;;;;5054854;28;20052;-69
2021/05/19 01:50:59;;;;;;;1.70;1.60;;;8.60;99.90;;;;;;5074093;28;20032;-72
2021/05/19 01:53:28;;;;;;;2.80;1.98;;;8.60;99.90;;;;;;5073925;28;20033;-72
2021/05/19 01:55:55;;;;;;;3.95;2.17;;;8.60;99.90;;;;;;5072904;28;20029;-72
2021/05/19 01:58:21;;;;;;;1.88;1.67;;;8.60;99.90;;;;;;5074205;28;20070;-72
2021/05/19 02:00:47;;;;;;;3.75;1.95;;;8.60;99.90;;;;;;5072766;28;20049;-73
2021/05/19 02:03:13;;;;;;;5.53;1.77;;;8.60;99.90;;;;;;5073605;28;20168;-72
2021/05/19 02:05:39;;;;;;;1.92;1.63;;;8.60;99.90;;;;;;5063892;28;20036;-74
2021/05/19 02:08:06;;;;;;;3.50;2.17;;;8.60;99.90;;;;;;5073480;28;20078;-73
2021/05/19 02:10:33;;;;;;;4.55;1.98;;;8.60;99.90;;;;;;5072562;28;20107;-73
2021/05/19 02:13:05;;;;;;;1.88;1.60;;;8.60;99.90;;;;;;5055478;28;20028;-72
2021/05/19 02:15:31;;;;;;;2.50;1.77;;;8.60;99.90;;;;;;5072941;28;20021;-68
2021/05/19 02:17:58;;;;;;;3.30;2.20;;;8.60;99.90;;;;;;5073397;28;20082;-72
2021/05/19 02:20:26;;;;;;;2.30;1.98;;;8.60;99.90;;;;;;5055165;28;20074;-70
2021/05/19 02:22:51;;;;;;;1.90;1.75;;;8.60;99.90;;;;;;5073380;28;20085;-72
2021/05/19 02:25:19;;;;;;;2.53;2.05;;;8.60;99.90;;;;;;5046603;28;20017;-72
2021/05/19 02:27:46;;;;;;;2.95;1.92;;;8.60;99.90;;;;;;5071170;28;20047;-73
2021/05/19 02:30:14;;;;;;;2.25;1.90;;;8.60;99.90;;;;;;5055349;28;20115;-72
2021/05/19 02:32:40;;;;;;;3.40;2.20;;;8.60;99.90;;;;;;5072663;28;20024;-73
2021/05/19 02:35:07;;;;;;;3.45;2.35;;;8.60;99.90;;;;;;5054572;28;20040;-72
2021/05/19 02:37:33;;;;;;;2.63;1.98;;;8.60;99.90;;;;;;5054180;28;20028;-72
2021/05/19 02:39:59;;;;;;;3.22;2.10;;;8.60;99.90;;;;;;5072893;28;20359;-72
2021/05/19 02:42:25;;;;;;;2.30;2.00;;;8.60;99.90;;;;;;5054666;28;20027;-72
2021/05/19 02:44:51;;;;;;;2.20;1.98;;;8.60;99.90;;;;;;5071368;28;20017;-70
2021/05/19 02:47:16;;;;;;;2.95;1.70;;;8.60;99.90;;;;;;5072528;28;20033;-73
2021/05/19 02:49:42;;;;;;;2.50;2.30;;;8.60;99.90;;;;;;5054060;28;20115;-72
2021/05/19 02:52:08;;;;;;;4.65;2.08;;;8.60;99.90;;;;;;5072421;28;20037;-73
2021/05/19 02:54:35;;;;;;;1.58;1.48;;;8.60;99.90;;;;;;5053687;28;20028;-72
2021/05/19 02:57:01;;;;;;;2.00;1.83;;;8.60;99.90;;;;;;5071786;28;20032;-73
2021/05/19 02:59:27;;;;;;;1.80;1.70;;;8.60;99.90;;;;;;5055247;28;20059;-71
2021/05/19 03:01:53;;;;;;;2.63;1.98;;;8.60;99.90;;;;;;5089258;28;20740;-72
2021/05/19 03:04:18;;;;;;;3.08;1.98;;;8.60;99.90;;;;;;5092366;28;20032;-72
2021/05/19 03:06:44;;;;;;;2.53;1.75;;;8.60;99.90;;;;;;5091358;28;20085;-72
2021/05/19 03:09:10;;;;;;;1.50;1.40;;;8.60;99.90;;;;;;5092665;28;20032;-73
2021/05/19 03:11:36;;;;;;;3.15;1.60;;;8.60;99.90;;;;;;5091580;28;20032;-73
2021/05/19 03:14:04;;;;;;;2.60;2.13;;;8.60;99.90;;;;;;5092637;28;20354;-72
2021/05/19 03:16:31;;;;;;;2.05;1.70;;;8.60;99.90;;;;;;5092164;28;20036;-68
2021/05/19 03:18:57;;;;;;;3.13;1.90;;;8.60;99.90;;;;;;5092385;28;20032;-73
2021/05/19 03:21:23;;;;;;;3.22;1.63;;;8.60;99.90;;;;;;5091649;28;20032;-73
2021/05/19 03:23:49;;;;;;;3.58;1.92;;;8.60;99.90;;;;;;5091138;28;20810;-72
2021/05/19 03:26:15;;;;;;;2.95;1.67;;;8.60;99.90;;;;;;5092118;28;20027;-72
2021/05/19 03:28:42;;;;;;;1.77;1.55;;;8.60;99.90;;;;;;5091087;28;20059;-69
2021/05/19 03:31:08;;;;;;;1.88;1.77;;;8.60;99.90;;;;;;5089250;28;20032;-70
2021/05/19 03:33:35;;;;;;;1.77;1.52;;;8.60;99.90;;;;;;5089661;28;20039;-70
2021/05/19 03:36:01;;;;;;;1.85;1.40;;;8.60;99.90;;;;;;5092056;28;20027;-72
2021/05/19 03:38:27;;;;;;;1.60;1.50;;;8.60;99.90;;;;;;5091586;28;20495;-72
2021/05/19 03:40:53;;;;;;;6.07;1.80;;;8.50;99.90;;;;;;5090140;28;20024;-72
2021/05/19 03:43:19;;;;;;;2.72;1.88;;;8.50;99.90;;;;;;5091586;28;20036;-71
2021/05/19 03:45:45;;;;;;;2.33;1.40;;;8.60;99.90;;;;;;5092801;28;20031;-73
2021/05/19 03:48:10;;;;;;;2.03;1.70;;;8.60;99.90;;;;;;5093644;28;20388;-73
2021/05/19 03:50:37;;;;;;;2.97;1.77;;;8.60;99.90;;;;;;5090416;28;20036;-72
2021/05/19 03:53:04;;;;;;;1.73;1.50;;;8.50;99.90;;;;;;5088439;28;20039;-71
2021/05/19 03:55:30;;;;;;;2.25;1.38;;;8.50;99.90;;;;;;5082172;28;20039;-70
2021/05/19 03:57:56;;;;;;;4.60;1.70;;;8.50;99.90;;;;;;5090773;28;20170;-72
2021/05/19 04:00:24;;;;;;;1.70;1.60;;;8.50;99.90;;;;;;5089942;28;20544;-71
2021/05/19 04:02:50;;;;;;;1.50;1.40;;;8.50;99.90;;;;;;5090625;28;20024;-72
2021/05/19 04:05:25;;;;;;;2.92;2.10;;;8.40;99.90;;;;;;5090817;28;20093;-73
2021/05/19 04:07:55;;;;;;;1.38;1.27;;;8.50;99.90;;;;;;5090185;28;20606;-72
2021/05/19 04:10:22;;;;;;;2.25;1.88;;;8.50;99.90;;;;;;5091557;28;20370;-72
2021/05/19 04:12:50;;;;;;;1.92;1.83;;;8.50;99.90;;;;;;5090754;28;20039;-72
2021/05/19 04:15:17;;;;;;;3.47;1.70;;;8.50;99.90;;;;;;5091594;28;20032;-73
2021/05/19 04:17:43;;;;;;;2.78;1.98;;;8.50;99.90;;;;;;5090282;28;20097;-72
2021/05/19 04:20:09;;;;;;;2.30;1.45;;;8.50;99.90;;;;;;5091579;28;20477;-72
2021/05/19 04:22:35;;;;;;;1.85;1.70;;;8.60;99.90;;;;;;5089945;28;20035;-69
2021/05/19 04:25:01;;;;;;;1.90;1.60;;;8.50;99.90;;;;;;5089776;28;20032;-73
2021/05/19 04:27:27;;;;;;;1.52;1.42;;;8.50;99.90;;;;;;5085532;28;20042;-72
2021/05/19 04:29:52;;;;;;;2.95;2.03;;;8.50;99.90;;;;;;5090744;28;20016;-72
2021/05/19 04:32:19;;;;;;;3.72;1.92;;;8.60;99.90;;;;;;5091412;28;20036;-72
2021/05/19 04:34:44;;;;;;;3.13;1.95;;;8.60;99.90;;;;;;5090185;28;20408;-72
2021/05/19 04:37:10;;;;;;;2.22;1.90;;;8.60;99.90;;;;;;5091078;28;20047;-72
2021/05/19 04:39:36;;;;;;;6.22;2.00;;;8.60;99.90;;;;;;5090371;28;20032;-68
2021/05/19 04:42:02;;;;;;;2.25;2.03;;;8.60;99.90;;;;;;5083131;28;20107;-72
2021/05/19 04:44:28;;;;;;;2.03;1.77;;;8.60;99.90;;;;;;5089639;28;20525;-72
2021/05/19 04:46:54;;;;;;;1.92;1.83;;;8.70;99.90;;;;;;5089322;28;20085;-72
2021/05/19 04:49:20;;;;;;;2.10;1.90;;;8.70;99.90;;;;;;5077546;28;20032;-72
2021/05/19 04:51:46;;;;;;;2.28;2.08;;;8.70;99.90;;;;;;5089701;28;20389;-72
2021/05/19 04:54:11;;;;;;;2.65;2.08;;;8.60;99.90;;;;;;5089511;28;20028;-72
2021/05/19 04:56:37;;;;;;;3.35;2.00;;;8.60;99.90;;;;;;5088530;28;20024;-71
2021/05/19 04:59:04;;;;;;;2.72;2.53;;;8.60;99.90;;;;;;5086831;28;20032;-72
2021/05/19 05:01:30;;;;;;;2.55;2.35;;;8.70;99.90;;;;;;5070946;28;20029;-72
2021/05/19 05:03:55;;;;;;;3.22;2.63;;;8.70;99.90;;;;;;5069458;28;20035;-72
2021/05/19 05:06:21;;;;;;;3.30;2.45;;;8.70;99.90;;;;;;5055115;28;20488;-73
2021/05/19 05:08:47;;;;;;;2.90;2.38;;;8.70;99.90;;;;;;5078459;28;20024;-74
2021/05/19 05:11:13;;;;;;;3.22;2.28;;;8.80;99.90;;;;;;5057560;28;20064;-73
2021/05/19 05:13:38;;;;;;;3.10;2.80;;;8.80;99.90;;;;;;5073745;28;20032;-73
2021/05/19 05:16:04;;;;;;;3.78;2.60;;;8.80;99.90;;;;;;5074504;28;20028;-73
2021/05/19 05:18:37;;;;;;;3.05;2.70;;;8.80;99.90;;;;;;5074049;28;20024;-73
2021/05/19 05:21:04;;;;;;;4.47;2.42;;;8.90;99.90;;;;;;5056205;28;20114;-73
2021/05/19 05:23:31;;;;;;;3.50;2.95;;;8.90;99.90;;;;;;5074457;28;20112;-73
2021/05/19 05:25:58;;;;;;;3.05;2.20;;;9.00;99.90;;;;;;5073236;28;20142;-73
2021/05/19 05:28:23;;;;;;;2.63;2.42;;;9.00;99.90;;;;;;5074140;28;20036;-73
2021/05/19 05:30:49;;;;;;;3.30;2.58;;;9.10;99.90;;;;;;5073580;28;20037;-73
2021/05/19 05:33:15;;;;;;;5.38;2.53;;;9.20;99.90;;;;;;5073637;28;20462;-73
2021/05/19 05:35:42;;;;;;;2.67;2.47;;;9.20;99.90;;;;;;5073798;28;20029;-69
2021/05/19 05:38:09;;;;;;;2.63;2.38;;;9.30;99.90;;;;;;5049043;28;20051;-73
2021/05/19 05:40:35;;;;;;;2.75;2.50;;;9.40;99.90;;;;;;5072758;28;20041;-67
2021/05/19 05:43:01;;;;;;;3.38;2.70;;;9.40;99.90;;;;;;5049974;28;20032;-74
2021/05/19 05:45:27;;;;;;;2.50;2.30;;;9.50;99.90;;;;;;5055714;28;20024;-74
2021/05/19 05:47:53;;;;;;;3.58;2.20;;;9.50;99.90;;;;;;5055195;28;20539;-73
2021/05/19 05:50:19;;;;;;;2.25;2.05;;;9.60;99.90;;;;;;5073715;28;20044;-74
2021/05/19 05:52:44;;;;;;;3.60;2.78;;;9.70;99.90;;;;;;5072924;28;20035;-73
2021/05/19 05:55:12;;;;;;;3.15;2.65;;;9.80;99.90;;;;;;5072840;28;20447;-74
2021/05/19 05:57:37;;;;;;;4.45;2.85;;;9.90;99.90;;;;;;5054729;28;20026;-69
2021/05/19 06:00:06;;;;;;;3.03;2.13;;;9.90;99.90;;;;;;5073308;28;20393;-73
2021/05/19 06:02:31;;;;;;;3.22;2.60;;;9.90;99.90;;;;;;5073507;28;20428;-72
2021/05/19 06:04:57;;;;;;;8.32;3.10;;;10.00;99.90;;;;;;5054997;28;20032;-72
2021/05/19 06:07:23;;;;;;;3.80;2.95;;;10.00;99.90;;;;;;5055048;28;20454;-72
2021/05/19 06:09:52;;;;;;;5.28;3.10;;;10.00;99.90;;;;;;5066535;28;20036;-73
2021/05/19 06:12:19;;;;;;;4.00;2.97;;;10.00;99.90;;;;;;5063013;28;20031;-71
2021/05/19 06:14:45;;;;;;;3.83;2.67;;;10.00;99.90;;;;;;5054656;28;20028;-69
2021/05/19 06:17:12;;;;;;;4.80;3.17;;;10.00;99.90;;;;;;5073182;28;20485;-72
2021/05/19 06:19:38;;;;;;;3.30;2.38;;;9.90;99.90;;;;;;5071761;28;20031;-68
2021/05/19 06:22:03;;;;;;;3.55;2.58;;;10.00;99.90;;;;;;5073144;28;20025;-71
2021/05/19 06:24:29;;;;;;;5.85;3.13;;;10.00;99.90;;;;;;5054806;28;20064;-71
2021/05/19 06:26:55;;;;;;;5.15;2.80;;;10.00;99.90;;;;;;5071516;28;20040;-71
2021/05/19 06:29:21;;;;;;;4.75;3.33;;;10.10;99.90;;;;;;5055030;28;20032;-71
2021/05/19 06:31:47;;;;;;;6.55;3.53;;;10.10;99.90;;;;;;5075917;28;20032;-70
2021/05/19 06:34:13;;;;;;;5.35;2.83;;;10.20;99.90;;;;;;5073426;28;20039;-72
2021/05/19 06:36:43;;;;;;;3.17;2.55;;;10.40;99.90;;;;;;5061859;28;20039;-69
2021/05/19 06:39:09;;;;;;;4.00;2.85;;;10.50;99.90;;;;;;5072908;28;20040;-71
2021/05/19 06:41:35;;;;;;;5.43;2.40;;;10.70;99.90;;;;;;5072898;28;20036;-69
2021/05/19 06:44:00;;;;;;;3.67;2.80;;;10.80;99.90;;;;;;5071983;28;20039;-70
2021/05/19 06:46:26;;;;;;;4.05;2.70;;;11.00;99.90;;;;;;5071858;28;20040;-70
2021/05/19 06:48:52;;;;;;;3.55;2.80;;;11.20;99.90;;;;;;5071208;28;20535;-70
2021/05/19 06:51:18;;;;;;;2.58;2.38;;;11.40;99.90;;;;;;5072127;28;20104;-70
2021/05/19 06:53:44;;;;;;;3.35;2.53;;;11.80;99.90;;;;;;5071522;28;20028;-70
2021/05/19 06:56:10;;;;;;;3.22;2.25;;;11.70;99.90;;;;;;5071666;28;20097;-73
2021/05/19 06:58:36;;;;;;;4.03;2.10;;;12.00;99.90;;;;;;5071981;28;20025;-73
2021/05/19 07:01:02;;;;;;;4.35;2.70;;;12.20;99.80;;;;;;5088443;28;20056;-75
2021/05/19 07:03:27;;;;;;;6.20;2.50;;;12.40;98.80;;;;;;5091282;28;20032;-73
2021/05/19 07:05:53;;;;;;;5.53;2.42;;;12.60;96.10;;;;;;5091088;28;20028;-75
2021/05/19 07:08:21;;;;;;;3.63;2.35;;;12.60;96.40;;;;;;5092585;28;20035;-74
2021/05/19 07:10:46;;;;;;;4.88;2.63;;;12.70;95.30;;;;;;5090010;28;20034;-76
2021/05/19 07:13:16;;;;;;;3.38;2.42;;;12.80;92.80;;;;;;5092533;28;20431;-75
2021/05/19 07:15:42;;;;;;;3.03;2.33;;;12.70;95.50;;;;;;5080884;28;20028;-75
2021/05/19 07:18:15;;;;;;;2.97;1.92;;;12.60;96.10;;;;;;5092053;28;20044;-72
2021/05/19 07:20:40;;;;;;;5.18;2.00;;;12.90;97.70;;;;;;5091096;28;20039;-71
2021/05/19 07:23:06;;;;;;;5.28;2.25;;;12.60;95.40;;;;;;5091204;28;20028;-75
2021/05/19 07:25:32;;;;;;;2.22;1.95;;;12.70;96.10;;;;;;5092328;28;20100;-74
2021/05/19 07:27:58;;;;;;;2.05;1.80;;;12.90;91.60;;;;;;5090397;28;20071;-74
2021/05/19 07:30:24;;;;;;;2.75;1.90;;;13.10;91.30;;;;;;5083293;28;20025;-74
2021/05/19 07:32:50;;;;;;;2.28;2.08;;;13.20;90.90;;;;;;5089025;28;20376;-75
2021/05/19 07:35:17;;;;;;;5.97;2.30;;;13.50;90.30;;;;;;5074009;28;20056;-74
2021/05/19 07:37:42;;;;;;;2.47;2.28;;;13.40;90.80;;;;;;5090589;28;20477;-71
2021/05/19 07:40:09;;;;;;;5.07;2.63;;;13.00;93.80;;;;;;5091433;28;20032;-70
2021/05/19 07:42:34;;;;;;;6.85;3.10;;;12.60;96.30;;;;;;5091249;28;20027;-71
2021/05/19 07:45:00;;;;;;;6.43;2.60;;;11.90;99.90;;;;;;5090765;28;20040;-71
2021/05/19 07:47:26;;;;;;;2.80;2.60;;;11.40;99.90;;;;;;5091395;28;20039;-72
2021/05/19 07:49:52;;;;;;;5.93;2.90;;;11.00;99.90;;;;;;5085235;28;20524;-71
2021/05/19 07:52:19;;;;;;;5.82;3.30;;;10.70;99.90;;;;;;5091847;28;20028;-71
2021/05/19 07:54:47;;;;;;;7.68;3.17;;;10.50;99.90;;;;;;5093154;28;20493;-71
2021/05/19 07:57:17;;;;;;;6.82;3.40;;;10.40;99.90;;;;;;5092005;28;20032;-71
2021/05/19 07:59:45;;;;;;;3.35;3.15;;;10.30;99.90;;;;;;5082264;28;20040;-70
2021/05/19 08:02:13;;;;;;;5.45;3.95;;;10.20;99.90;;;;;;5071048;28;20489;-70
2021/05/19 08:04:39;;;;;;;4.38;3.20;;;10.20;99.90;;;;;;5053650;28;20024;-70
2021/05/19 08:07:07;;;;;;;4.18;3.53;;;10.20;99.90;;;;;;5053014;28;20063;-73
2021/05/19 08:09:33;;;;;;;6.05;3.10;;;10.20;99.90;;;;;;5053635;28;20024;-72
2021/05/19 08:12:02;;;;;;;2.85;2.40;;;10.20;99.90;;;;;;5070295;28;20151;-74
2021/05/19 08:14:31;;;;;;;5.13;2.80;;;10.30;99.90;;;;;;5053123;28;20082;-79
2021/05/19 08:16:58;;;;;;;3.53;2.50;;;10.40;99.90;;;;;;5070878;28;20028;-74
2021/05/19 08:19:24;;;;;;;3.35;2.95;;;10.60;99.90;;;;;;5053349;28;20030;-71
2021/05/19 08:21:50;;;;;;;4.90;3.10;;;10.70;99.90;;;;;;5052304;28;20024;-73
2021/05/19 08:24:16;;;;;;;8.48;3.20;;;10.80;99.90;;;;;;5067129;28;20025;-72
2021/05/19 08:26:41;;;;;;;3.97;2.80;;;10.90;99.90;;;;;;5066676;28;20492;-69
2021/05/19 08:29:07;;;;;;;3.47;2.85;;;11.00;99.90;;;;;;5070305;28;20028;-73
2021/05/19 08:31:34;;;;;;;4.32;3.13;;;11.10;99.90;;;;;;5070901;28;20040;-73
2021/05/19 08:33:59;;;;;;;5.57;3.08;;;11.10;99.90;;;;;;5069737;28;20017;-74
2021/05/19 08:36:28;;;;;;;5.80;2.78;;;11.20;99.90;;;;;;5070639;28;20032;-73
2021/05/19 08:38:54;;;;;;;3.60;2.67;;;11.20;99.90;;;;;;5069954;28;20116;-74
2021/05/19 08:41:20;;;;;;;6.65;2.88;;;11.40;99.90;;;;;;5073598;28;20448;-73
2021/05/19 08:43:46;;;;;;;5.47;2.72;;;11.40;99.90;;;;;;5074424;28;20025;-76
2021/05/19 08:46:12;;;;;;;6.05;2.65;;;11.60;99.90;;;;;;5056918;28;20029;-75
2021/05/19 08:48:40;;;;;;;6.85;2.40;;;11.70;99.90;;;;;;5074481;28;20055;-72
2021/05/19 08:51:07;;;;;;;5.60;2.40;;;11.90;97.80;;;;;;5074434;28;20032;-75
2021/05/19 08:53:33;;;;;;;4.97;2.30;;;12.00;96.20;;;;;;5039747;28;20029;-76
2021/05/19 08:56:06;;;;;;;3.60;2.55;;;12.10;96.80;;;;;;5055365;28;20084;-76
2021/05/19 08:58:33;;;;;;;4.50;2.20;;;12.20;97.10;;;;;;5073779;28;20020;-74
2021/05/19 09:00:58;;;;;;;3.35;1.92;;;12.20;95.40;;;;;;5074003;28;20125;-73
2021/05/19 09:03:24;;;;;;;2.92;1.98;;;12.30;91.60;;;;;;5074355;28;20458;-73
2021/05/19 09:05:49;;;;;;;6.13;2.70;;;12.20;93.80;;;;;;5073349;28;20027;-72
2021/05/19 09:08:17;;;;;;;6.07;2.60;;;12.20;93.50;;;;;;5074253;28;20110;-76
2021/05/19 09:10:56;;;;;;;4.03;2.20;;;12.30;92.00;;;;;;5073956;28;20035;-69
2021/05/19 09:13:36;;;;;;;7.90;2.10;;;12.50;91.40;;;;;;5073866;28;20025;-74
2021/05/19 09:16:04;;;;;;;5.50;2.10;;;12.60;92.70;;;;;;5073779;28;20032;-74
2021/05/19 09:18:49;;;;;;;2.78;1.83;;;12.80;95.80;;;;;;5069372;28;20040;-74
2021/05/19 09:21:31;;;;;;;14.95;3.90;;;13.10;93.90;;;;;;5051742;28;20120;-74
2021/05/19 09:23:58;;;;;;;3.53;1.52;;;13.30;93.60;;;;;;5073572;28;20032;-74
2021/05/19 09:26:24;;;;;;;2.00;1.50;;;13.40;87.00;;;;;;5056379;28;20031;-76
2021/05/19 09:28:49;;;;;;;2.70;0.90;;;13.60;81.10;;;;;;5072752;28;20381;-73
2021/05/19 09:31:22;;;;;;;1.85;1.13;;;13.70;77.20;;;;;;5073973;28;20472;-73
2021/05/19 09:33:50;;;;;;;1.88;0.90;;;13.80;72.50;;;;;;5055023;28;20029;-75
2021/05/19 09:36:21;;;;;;;3.92;1.10;;;13.60;72.40;;;;;;5074301;28;20086;-73
2021/05/19 09:38:50;;;;;;;1.40;0.98;;;13.70;76.60;;;;;;5073126;28;20020;-75
2021/05/19 09:41:32;;;;;;;3.28;1.08;;;13.80;70.80;;;;;;5073895;28;20032;-72
2021/05/19 09:44:00;;;;;;;1.08;0.93;;;14.00;73.20;;;;;;5072545;28;20032;-73
2021/05/19 09:49:12;;;;;;;1.38;1.08;;;14.30;69.40;;;;;;5072832;28;20028;-73
2021/05/19 09:51:39;;;;;;;3.15;1.00;;;14.40;68.70;;;;;;5072329;28;20047;-78
2021/05/19 09:54:05;;;;;;;4.05;1.52;;;14.50;70.00;;;;;;5056078;28;20105;-75
2021/05/19 09:56:30;;;;;;;2.17;0.90;;;14.70;69.20;;;;;;5073693;28;20040;-75
2021/05/19 09:58:56;;;;;;;5.75;1.30;;;14.90;66.50;;;;;;5071732;28;20028;-76
2021/05/19 10:01:25;;;;;;;2.08;1.10;;;14.90;66.90;;;;;;5055795;28;20153;-79
2021/05/19 10:03:52;;;;;;;2.42;0.82;;;14.90;66.80;;;;;;5073299;28;20031;-78
2021/05/19 10:08:44;;;;;;;1.58;0.77;;;15.10;66.70;;;;;;5072939;28;20025;-81
2021/05/19 10:11:11;;;;;;;2.08;0.70;;;15.10;60.60;;;;;;5055558;28;20111;-75
2021/05/19 10:13:38;;;;;;;1.45;0.70;;;15.20;63.50;;;;;;5052635;28;20074;-74
2021/05/19 10:16:07;;;;;;;1.98;0.82;;;15.50;61.20;;;;;;5071393;28;20512;-76
2021/05/19 10:18:42;;;;;;;1.13;0.70;;;15.80;59.80;;;;;;5054966;28;20039;-73
2021/05/19 10:21:09;;;;;;;4.13;0.85;;;15.80;60.40;;;;;;5054788;28;20045;-73
2021/05/19 10:23:38;;;;;;;4.07;1.13;;;15.60;59.20;;;;;;5055410;28;20150;-74
2021/05/19 10:26:13;;;;;;;5.80;0.80;;;15.60;60.30;;;;;;5071491;28;20565;-74
2021/05/19 10:28:43;;;;;;;0.68;0.60;;;15.70;57.20;;;;;;5071883;28;20045;-73
2021/05/19 10:31:21;;;;;;;2.28;0.73;;;15.70;56.60;;;;;;5072650;28;20047;-76
2021/05/19 10:33:47;;;;;;;2.10;0.50;;;15.70;58.30;;;;;;5054381;28;20029;-74
2021/05/19 10:36:25;;;;;;;2.63;0.70;;;15.70;56.60;;;;;;5072895;28;20024;-74
2021/05/19 10:39:11;;;;;;;1.95;0.60;;;15.70;55.20;;;;;;5054568;28;20043;-75
2021/05/19 10:41:44;;;;;;;3.15;0.80;;;15.50;56.90;;;;;;5074449;28;20115;-76
2021/05/19 10:44:12;;;;;;;3.35;0.60;;;15.50;56.50;;;;;;5054056;28;20044;-75
2021/05/19 10:47:04;;;;;;;2.70;0.50;;;15.80;55.60;;;;;;5072814;28;20108;-75
2021/05/19 10:50:04;;;;;;;2.17;0.70;;;15.90;52.80;;;;;;5073104;28;20539;-80
2021/05/19 10:52:46;;;;;;;1.75;0.47;;;16.00;53.60;;;;;;5072646;28;20389;-75
2021/05/19 10:58:02;;;;;;;0.52;0.47;;;16.50;54.70;;;;;;5071907;28;20112;-75
2021/05/19 11:00:30;;;;;;;0.95;0.65;;;16.40;53.40;;;;;;5072186;28;20052;-74
2021/05/19 11:03:02;;;;;;;1.80;0.75;;;16.60;54.80;;;;;;5053802;28;20021;-75
2021/05/19 11:05:36;;;;;;;2.38;0.80;;;16.80;53.70;;;;;;5072321;28;20024;-75
2021/05/19 11:08:10;;;;;;;1.70;0.60;;;16.90;51.10;;;;;;5065454;28;20041;-76
2021/05/19 11:10:51;;;;;;;3.85;0.95;;;16.90;53.80;;;;;;5071989;28;20452;-77
2021/05/19 11:13:18;;;;;;;1.80;0.80;;;17.00;51.60;;;;;;5054394;28;20029;-75
2021/05/19 11:15:52;;;;;;;2.72;0.88;;;17.10;51.10;;;;;;5072674;28;20020;-71
2021/05/19 11:20:51;;;;;;;1.73;1.13;;;16.30;51.90;;;;;;5072198;28;20037;-80
2021/05/19 11:23:17;;;;;;;2.17;1.17;;;16.10;55.30;;;;;;5073817;28;20029;-79
2021/05/19 11:25:44;;;;;;;8.35;1.55;;;16.20;54.50;;;;;;5079501;28;20024;-70
2021/05/19 11:28:25;;;;;;;7.03;1.05;;;16.20;55.90;;;;;;5088189;28;20052;-73
2021/05/19 11:30:51;;;;;;;4.60;1.30;;;16.30;56.00;;;;;;5089545;28;20054;-72
2021/05/19 11:33:21;;;;;;;1.95;0.98;;;16.30;55.60;;;;;;5072889;28;20021;-75
2021/05/19 11:35:48;;;;;;;4.28;1.00;;;16.40;53.00;;;;;;5055118;28;20064;-71
2021/05/19 11:38:15;;;;;;;4.70;1.00;;;16.60;52.70;;;;;;5071592;28;20127;-77
2021/05/19 11:40:49;;;;;;;7.55;1.30;;;16.80;50.80;;;;;;5072066;28;20489;-78
2021/05/19 11:43:16;;;;;;;3.67;1.05;;;16.80;52.70;;;;;;5072377;28;20028;-76
2021/05/19 11:45:44;;;;;;;3.38;1.08;;;16.80;50.70;;;;;;5046280;28;20028;-77
2021/05/19 11:48:24;;;;;;;2.30;0.98;;;16.70;51.50;;;;;;5071507;28;20056;-76
2021/05/19 11:50:51;;;;;;;3.75;0.82;;;16.60;51.50;;;;;;5054816;28;20116;-82
2021/05/19 11:53:18;;;;;;;2.38;0.70;;;16.80;50.90;;;;;;5053659;28;20028;-75
2021/05/19 11:55:50;;;;;;;3.53;0.70;;;16.70;49.00;;;;;;5053440;28;20488;-76
2021/05/19 11:58:29;;;;;;;3.58;0.80;;;16.60;50.30;;;;;;5071420;28;20404;-76
2021/05/19 12:01:03;;;;;;;4.97;0.90;;;16.40;51.30;;;;;;5067229;28;20151;-78
2021/05/19 12:03:31;;;;;;;3.72;1.25;;;16.20;49.20;;;;;;5064497;28;20436;-72
2021/05/19 12:06:10;;;;;;;2.78;0.82;;;16.10;51.80;;;;;;5070974;28;20477;-75
2021/05/19 12:08:39;;;;;;;2.30;0.88;;;16.40;51.50;;;;;;5071217;28;20130;-75
2021/05/19 12:11:21;;;;;;;4.20;0.93;;;16.90;46.90;;;;;;5070471;28;20091;-74
2021/05/19 12:14:14;;;;;;;1.95;0.70;;;17.50;48.20;;;;;;5065616;28;20020;-71
2021/05/19 12:16:47;;;;;;;1.45;0.70;;;17.90;46.30;;;;;;5070741;28;20082;-73
2021/05/19 12:19:25;;;;;;;2.17;0.55;;;17.90;45.20;;;;;;5071382;28;20016;-75
2021/05/19 12:22:03;;;;;;;2.22;1.02;;;18.10;44.10;;;;;;5070508;28;20016;-74
2021/05/19 12:24:29;;;;;;;4.32;0.85;;;18.30;45.10;;;;;;5071278;28;20070;-74
2021/05/19 12:26:56;;;;;;;1.45;0.90;;;18.80;44.10;;;;;;5070489;28;20041;-75
2021/05/19 12:29:37;;;;;;;1.17;0.70;;;19.10;44.50;;;;;;5071497;28;20025;-75
2021/05/19 12:32:36;;;;;;;1.35;0.70;;;19.20;42.70;;;;;;5067964;28;20554;-75
2021/05/19 12:35:15;;;;;;;3.00;0.50;;;19.10;43.20;;;;;;4952669;28;20129;-76
2021/05/19 12:37:46;;;;;;;2.15;0.68;;;19.30;42.80;;;;;;4970090;28;20050;-75
2021/05/19 12:40:15;;;;;;;2.30;0.80;;;19.50;42.00;;;;;;4969655;28;20038;-74
2021/05/19 12:42:46;;;;;;;1.90;0.80;;;19.30;41.00;;;;;;4962390;28;20046;-75
2021/05/19 12:45:21;;;;;;;3.08;1.23;;;19.30;43.10;;;;;;4969586;28;20035;-75
2021/05/19 12:48:00;;;;;;;2.47;0.90;;;19.30;42.20;;;;;;4969462;28;20059;-70
2021/05/19 12:50:34;;;;;;;2.67;0.90;;;19.20;42.20;;;;;;4953785;28;20117;-74
2021/05/19 12:53:00;;;;;;;3.45;0.90;;;19.40;42.60;;;;;;4943262;28;20480;-76
2021/05/19 12:55:25;;;;;;;2.22;0.80;;;19.60;43.30;;;;;;4966983;28;20042;-73
2021/05/19 12:58:08;;;;;;;1.63;0.60;;;19.90;41.70;;;;;;4960922;28;20050;-75
2021/05/19 13:00:35;;;;;;;6.50;1.35;;;20.10;40.90;;;;;;4998614;28;20054;-75
2021/05/19 13:03:00;;;;;;;3.17;0.50;;;20.20;39.30;;;;;;5007554;28;20029;-75
2021/05/19 13:05:29;;;;;;;4.00;0.90;;;20.40;41.50;;;;;;5009033;28;20033;-75
2021/05/19 13:07:55;;;;;;;2.17;0.75;;;20.40;40.60;;;;;;5005834;28;20047;-75